Time;durP1;ratioP1;P1;durP2;ratioP2;P2;SDS_P1;SDS_P2;PMS_P1;PMS_P2;Temp;Humidity;BMP_temperature;BMP_pressure;BME280_temperature;BME280_humidity;BME280_pressure;Samples;Min_cycle;Max_cycle;Signal;HPM_P1;HPM_P2
2024/04/16 00:01:01;;;;;;;13.27;1.70;;;;;;;10.69;68.51;100236.94;5524467;25;20584;-41
2024/04/16 00:03:26;;;;;;;11.63;2.00;;;;;;;10.75;68.00;100243.03;5523804;25;20480;-41
2024/04/16 00:05:51;;;;;;;12.77;2.17;;;;;;;10.27;68.28;100220.31;5524419;25;20012;-49
2024/04/16 00:08:17;;;;;;;11.43;1.83;;;;;;;10.77;68.37;100236.09;5524021;25;20514;-42
2024/04/16 00:10:42;;;;;;;12.60;2.03;;;;;;;10.89;68.09;100235.25;5524424;25;19993;-44
2024/04/16 00:13:07;;;;;;;6.82;1.50;;;;;;;10.63;67.19;100227.38;5525014;25;20065;-41
2024/04/16 00:15:33;;;;;;;6.00;1.40;;;;;;;10.36;66.91;100233.38;5524368;25;20072;-43
2024/04/16 00:17:58;;;;;;;5.57;1.27;;;;;;;10.66;65.95;100240.44;5523947;25;19997;-44
2024/04/16 00:20:23;;;;;;;9.15;1.65;;;;;;;10.35;67.99;100236.84;5521919;25;20458;-41
2024/04/16 00:22:49;;;;;;;8.70;1.50;;;;;;;10.62;66.27;100235.19;5524612;25;20077;-42
2024/04/16 00:25:14;;;;;;;9.35;1.48;;;;;;;10.34;65.81;100226.41;5524180;25;20005;-49
2024/04/16 00:27:40;;;;;;;12.77;2.28;;;;;;;10.95;64.42;100214.41;5523295;25;20002;-41
2024/04/16 00:30:06;;;;;;;8.35;1.58;;;;;;;10.73;65.03;100210.91;5523956;25;20073;-42
2024/04/16 00:32:31;;;;;;;10.07;1.60;;;;;;;10.93;63.94;100209.19;5521946;25;20012;-44
2024/04/16 00:34:56;;;;;;;11.23;1.60;;;;;;;10.70;64.44;100200.47;5524035;25;20009;-43
2024/04/16 00:37:21;;;;;;;6.90;1.40;;;;;;;10.91;64.29;100210.06;5523733;25;20472;-41
2024/04/16 00:39:47;;;;;;;11.43;1.23;;;;;;;10.77;64.33;100197.00;5523789;25;19994;-47
2024/04/16 00:42:12;;;;;;;10.98;1.50;;;;;;;10.76;64.44;100184.81;5524002;25;20005;-42
2024/04/16 00:44:38;;;;;;;11.80;1.63;;;;;;;10.82;65.34;100183.97;5524591;25;19998;-42
2024/04/16 00:47:03;;;;;;;12.30;1.42;;;;;;;10.75;65.19;100180.47;5523369;25;20016;-44
2024/04/16 00:49:30;;;;;;;12.95;1.85;;;;;;;10.80;65.87;100168.31;5522721;25;20001;-41
2024/04/16 00:51:58;;;;;;;10.25;1.80;;;;;;;10.65;65.52;100176.13;5523996;25;20452;-42
2024/04/16 00:54:25;;;;;;;7.32;1.40;;;;;;;11.00;64.84;100160.50;5522411;25;20005;-43
2024/04/16 00:56:51;;;;;;;11.63;1.80;;;;;;;11.16;64.09;100172.66;5523063;25;20021;-42
2024/04/16 00:59:16;;;;;;;9.52;1.67;;;;;;;10.98;63.37;100162.22;5523758;25;20012;-41
2024/04/16 01:01:42;;;;;;;7.35;1.58;;;;;;;10.92;64.15;100163.09;5523422;25;20007;-41
2024/04/16 01:04:07;;;;;;;11.68;1.70;;;;;;;10.62;65.35;100157.84;5524043;25;20001;-41
2024/04/16 01:06:33;;;;;;;10.00;1.63;;;;;;;11.11;64.96;100157.88;5523295;25;20034;-44
2024/04/16 01:08:59;;;;;;;6.35;1.20;;;;;;;10.87;64.92;100185.69;5524141;25;20004;-42
2024/04/16 01:11:25;;;;;;;4.97;1.08;;;;;;;10.75;67.02;100185.69;5523202;25;20013;-45
2024/04/16 01:13:51;;;;;;;7.55;1.00;;;;;;;9.97;70.67;100222.72;5527897;25;20329;-42
2024/04/16 01:16:16;;;;;;;6.25;1.20;;;;;;;9.69;73.17;100213.91;5523490;25;20009;-47
2024/04/16 01:18:42;;;;;;;2.85;0.70;;;;;;;9.58;72.57;100236.34;5523846;25;20353;-42
2024/04/16 01:21:07;;;;;;;5.20;0.60;;;;;;;9.13;74.64;100229.06;5523339;25;20452;-41
2024/04/16 01:23:32;;;;;;;4.43;1.10;;;;;;;8.78;76.51;100232.19;5522764;25;20009;-41
2024/04/16 01:25:57;;;;;;;6.72;0.90;;;;;;;9.21;75.88;100215.25;5522946;25;20006;-41
2024/04/16 01:28:23;;;;;;;5.03;0.93;;;;;;;8.86;76.46;100207.16;5521555;25;20450;-45
2024/04/16 01:30:48;;;;;;;4.13;0.63;;;;;;;8.71;77.16;100217.41;5523444;25;20061;-42
2024/04/16 01:33:14;;;;;;;4.53;0.55;;;;;;;8.79;75.41;100214.88;5523492;25;20415;-42
2024/04/16 01:35:39;;;;;;;4.53;0.75;;;;;;;8.92;76.62;100195.94;5522565;25;19997;-43
2024/04/16 01:38:05;;;;;;;4.78;0.70;;;;;;;9.32;74.67;100204.97;5523229;25;20002;-42
2024/04/16 01:40:30;;;;;;;8.90;0.90;;;;;;;9.61;73.82;100200.81;5522175;25;20339;-42
2024/04/16 01:42:56;;;;;;;2.10;0.65;;;;;;;9.59;73.69;100199.06;5523138;25;19997;-41
2024/04/16 01:45:21;;;;;;;4.95;0.80;;;;;;;9.69;74.25;100185.28;5522159;25;20070;-41
2024/04/16 01:47:46;;;;;;;3.60;0.73;;;;;;;9.29;76.52;100189.31;5522858;25;20466;-42
2024/04/16 01:50:12;;;;;;;8.90;0.90;;;;;;;9.34;75.47;100190.22;5522082;25;19998;-45
2024/04/16 01:52:37;;;;;;;3.13;0.80;;;;;;;9.28;76.10;100178.03;5520551;25;20027;-41
2024/04/16 01:55:02;;;;;;;3.72;0.70;;;;;;;9.72;74.02;100180.06;5522815;25;20013;-42
2024/04/16 01:57:28;;;;;;;3.63;0.70;;;;;;;10.08;72.62;100168.94;5522299;25;19997;-41
2024/04/16 01:59:53;;;;;;;3.10;0.70;;;;;;;9.85;73.02;100158.44;5522856;25;20073;-41
2024/04/16 02:02:18;;;;;;;2.22;0.75;;;;;;;9.62;73.35;100154.84;5522387;25;20002;-41
2024/04/16 02:04:43;;;;;;;2.70;0.90;;;;;;;9.93;72.76;100158.50;5522615;25;20005;-41
2024/04/16 02:07:09;;;;;;;4.72;0.90;;;;;;;10.12;72.30;100153.34;5522546;25;19997;-41
2024/04/16 02:09:34;;;;;;;6.05;1.10;;;;;;;9.91;72.23;100137.66;5521819;25;20016;-40
2024/04/16 02:11:59;;;;;;;4.43;1.48;;;;;;;9.95;73.44;100139.38;5523197;25;20451;-42
2024/04/16 02:14:26;;;;;;;3.33;0.95;;;;;;;10.04;73.71;100117.72;5522133;25;20005;-41
2024/04/16 02:16:52;;;;;;;7.30;1.17;;;;;;;9.85;73.93;100128.94;5522395;25;20336;-40
2024/04/16 02:19:17;;;;;;;14.07;1.92;;;;;;;9.95;74.73;100109.88;5521953;25;20012;-41
2024/04/16 02:21:42;;;;;;;17.20;1.80;;;;;;;9.80;75.50;100115.91;5522255;25;20005;-41
2024/04/16 02:24:08;;;;;;;12.73;1.77;;;;;;;9.64;76.62;100122.75;5523465;25;20496;-41
2024/04/16 02:26:33;;;;;;;13.10;2.30;;;;;;;9.66;76.73;100107.16;5523861;25;20005;-40
2024/04/16 02:28:58;;;;;;;14.30;2.35;;;;;;;9.67;76.66;100104.56;5525020;25;20009;-42
2024/04/16 02:31:24;;;;;;;13.30;2.30;;;;;;;10.22;75.05;100106.53;5522353;25;20751;-43
2024/04/16 02:33:49;;;;;;;12.55;2.00;;;;;;;9.94;75.43;100095.16;5522170;25;20321;-42
2024/04/16 02:36:14;;;;;;;14.75;2.40;;;;;;;10.43;73.76;100098.78;5522221;25;20516;-42
2024/04/16 02:38:39;;;;;;;11.63;2.53;;;;;;;9.98;75.32;100102.97;5521454;25;20033;-42
2024/04/16 02:41:05;;;;;;;11.25;2.33;;;;;;;10.43;74.44;100090.97;5522071;25;20077;-42
2024/04/16 02:43:30;;;;;;;12.13;2.60;;;;;;;10.15;73.86;100087.38;5521461;25;20012;-43
2024/04/16 02:45:55;;;;;;;10.02;2.20;;;;;;;10.05;74.53;100083.03;5522238;25;20002;-41
2024/04/16 02:48:21;;;;;;;10.10;2.00;;;;;;;10.67;72.54;100069.25;5519036;25;19997;-40
2024/04/16 02:50:48;;;;;;;14.38;2.47;;;;;;;10.90;71.69;100076.19;5522175;25;19997;-42
2024/04/16 02:53:13;;;;;;;11.70;2.35;;;;;;;10.40;73.79;100068.34;5522080;25;19997;-42
2024/04/16 02:55:39;;;;;;;11.45;2.25;;;;;;;10.40;74.15;100062.28;5524077;25;19993;-41
2024/04/16 02:58:04;;;;;;;9.10;2.13;;;;;;;10.51;72.95;100060.53;5526005;25;20011;-41
2024/04/16 03:00:30;;;;;;;9.15;2.05;;;;;;;10.82;71.63;100050.97;5525149;25;20263;-41
2024/04/16 03:02:56;;;;;;;8.45;2.30;;;;;;;10.73;71.63;100056.22;5525660;25;20004;-42
2024/04/16 03:05:21;;;;;;;13.85;2.40;;;;;;;10.73;72.17;100043.19;5524386;25;20343;-43
2024/04/16 03:07:49;;;;;;;8.18;2.42;;;;;;;10.72;72.03;100044.91;5524934;25;20615;-44
2024/04/16 03:10:15;;;;;;;10.18;2.40;;;;;;;10.81;71.40;100042.28;5525468;25;20005;-42
2024/04/16 03:12:43;;;;;;;10.95;2.58;;;;;;;10.81;72.22;100023.16;5524614;25;20430;-42
2024/04/16 03:15:08;;;;;;;11.95;2.20;;;;;;;10.84;72.16;100042.31;5494972;26;20396;-41
2024/04/16 03:17:34;;;;;;;10.02;2.30;;;;;;;10.69;71.84;100046.63;5525096;25;20009;-41
2024/04/16 03:19:59;;;;;;;9.88;2.15;;;;;;;11.15;71.44;100034.44;5525459;25;20002;-41
2024/04/16 03:22:24;;;;;;;10.10;1.90;;;;;;;10.57;72.30;100031.88;5527179;25;20001;-42
2024/04/16 03:24:51;;;;;;;8.23;1.88;;;;;;;10.55;73.41;100041.44;5527624;25;20016;-41
2024/04/16 03:27:16;;;;;;;6.80;1.23;;;;;;;10.44;72.35;100048.38;5525836;26;20011;-41
2024/04/16 03:29:41;;;;;;;3.95;1.38;;;;;;;10.62;71.56;100037.94;5527758;25;20001;-42
2024/04/16 03:32:07;;;;;;;8.73;1.33;;;;;;;9.89;74.88;100032.63;5527080;25;20527;-41
2024/04/16 03:34:32;;;;;;;7.78;1.38;;;;;;;10.20;73.86;100027.50;5526689;25;20007;-42
2024/04/16 03:37:00;;;;;;;7.68;1.40;;;;;;;10.36;74.33;100027.53;5529018;25;19993;-41
2024/04/16 03:39:25;;;;;;;6.75;1.35;;;;;;;10.08;75.87;100015.31;5527378;25;20351;-41
2024/04/16 03:41:51;;;;;;;8.15;1.48;;;;;;;10.20;76.25;100023.16;5498928;26;20002;-43
2024/04/16 03:44:16;;;;;;;4.80;1.55;;;;;;;9.71;77.71;100036.03;5529469;25;19997;-42
2024/04/16 03:46:41;;;;;;;5.55;1.30;;;;;;;9.75;78.17;100027.41;5529028;26;20046;-43
2024/04/16 03:49:07;;;;;;;8.25;1.30;;;;;;;10.05;77.14;100010.97;5530086;25;19997;-42
2024/04/16 03:51:32;;;;;;;11.00;1.40;;;;;;;9.19;79.72;99993.34;5528973;25;20001;-42
2024/04/16 03:53:57;;;;;;;9.00;1.42;;;;;;;9.35;79.67;100007.28;5528823;26;20440;-41
2024/04/16 03:56:22;;;;;;;10.27;1.50;;;;;;;9.86;79.00;100006.59;5530786;25;20352;-41
2024/04/16 03:59:04;;;;;;;12.27;1.45;;;;;;;10.13;78.57;100010.97;5530990;25;20456;-42
2024/04/16 04:01:30;;;;;;;8.35;1.60;;;;;;;9.48;80.76;100006.47;5529084;25;20001;-41
2024/04/16 04:03:55;;;;;;;6.68;1.25;;;;;;;9.45;81.18;99997.78;5531873;25;20001;-42
2024/04/16 04:06:20;;;;;;;9.65;1.40;;;;;;;9.74;80.39;99978.81;5529600;25;20073;-41
2024/04/16 04:08:45;;;;;;;6.50;1.50;;;;;;;9.65;81.39;99981.38;5527923;25;20001;-42
2024/04/16 04:11:11;;;;;;;7.78;1.55;;;;;;;9.76;80.42;99961.44;5528371;25;20460;-43
2024/04/16 04:13:36;;;;;;;9.00;1.35;;;;;;;10.07;79.58;99957.13;5526760;25;20009;-43
2024/04/16 04:16:01;;;;;;;6.38;1.30;;;;;;;10.22;79.33;99964.13;5527406;25;20015;-42
2024/04/16 04:18:27;;;;;;;6.93;1.60;;;;;;;9.65;81.30;99957.06;5527073;25;20011;-42
2024/04/16 04:20:52;;;;;;;8.55;1.30;;;;;;;9.92;81.19;99959.75;5527237;25;20013;-42
2024/04/16 04:23:17;;;;;;;7.45;1.30;;;;;;;9.66;82.15;99980.50;5523545;25;19998;-40
2024/04/16 04:25:43;;;;;;;7.38;1.35;;;;;;;9.42;83.81;99959.63;5523415;25;20012;-41
2024/04/16 04:28:08;;;;;;;12.93;1.92;;;;;;;9.65;84.20;99960.53;5523284;25;20002;-42
2024/04/16 04:30:34;;;;;;;10.38;1.65;;;;;;;9.91;82.67;99950.19;5523777;25;20008;-41
2024/04/16 04:32:59;;;;;;;19.10;2.17;;;;;;;10.38;82.47;99949.34;5523514;25;20009;-42
2024/04/16 04:35:24;;;;;;;18.63;2.40;;;;;;;10.69;80.90;99943.25;5522991;25;20012;-43
2024/04/16 04:37:50;;;;;;;21.42;2.40;;;;;;;10.61;83.42;99936.31;5523680;25;20002;-45
2024/04/16 04:40:15;;;;;;;19.08;2.25;;;;;;;10.80;83.31;99938.88;5523584;25;20500;-41
2024/04/16 04:42:40;;;;;;;16.60;2.15;;;;;;;10.53;84.13;99942.41;5523312;25;20045;-42
2024/04/16 04:45:06;;;;;;;18.58;2.65;;;;;;;11.17;81.76;99952.66;5523234;25;19997;-44
2024/04/16 04:47:31;;;;;;;21.70;3.03;;;;;;;10.87;82.97;99955.38;5522932;25;19997;-44
2024/04/16 04:49:56;;;;;;;29.00;3.30;;;;;;;11.29;81.88;99960.44;5523271;25;20005;-41
2024/04/16 04:52:22;;;;;;;16.58;3.08;;;;;;;11.23;81.93;99968.28;5523358;25;20042;-42
2024/04/16 04:54:47;;;;;;;19.40;3.65;;;;;;;10.97;82.38;99970.13;5523669;25;20001;-46
2024/04/16 04:57:13;;;;;;;23.67;3.55;;;;;;;10.87;82.94;99979.69;5526872;25;20629;-42
2024/04/16 04:59:38;;;;;;;21.08;3.22;;;;;;;10.72;83.29;99976.28;5527855;25;20001;-43
2024/04/16 05:02:03;;;;;;;19.17;3.10;;;;;;;11.07;81.00;99970.97;5527617;25;20001;-41
2024/04/16 05:04:29;;;;;;;14.40;2.90;;;;;;;11.08;79.89;99972.72;5521549;25;20005;-41
2024/04/16 05:06:54;;;;;;;23.55;3.75;;;;;;;11.16;79.39;99984.00;5523459;25;20075;-41
2024/04/16 05:09:19;;;;;;;15.48;3.20;;;;;;;11.37;78.27;99987.38;5523207;25;20420;-43
2024/04/16 05:11:45;;;;;;;17.65;2.70;;;;;;;10.93;78.59;99997.94;5523374;25;20016;-42
2024/04/16 05:14:11;;;;;;;16.20;2.65;;;;;;;11.19;77.80;100013.53;5523220;25;20081;-42
2024/04/16 05:16:36;;;;;;;14.48;2.55;;;;;;;11.30;76.41;100010.88;5551645;25;20031;-41
2024/04/16 05:19:03;;;;;;;17.15;2.60;;;;;;;11.25;76.46;100005.69;5521954;25;20020;-42
2024/04/16 05:21:29;;;;;;;15.77;2.67;;;;;;;11.26;76.41;100011.78;5523154;25;19998;-40
2024/04/16 05:23:54;;;;;;;14.32;3.35;;;;;;;11.33;75.68;100034.38;5523528;25;20004;-41
2024/04/16 05:26:21;;;;;;;16.00;2.90;;;;;;;11.46;74.98;100028.25;5522181;25;19998;-41
2024/04/16 05:28:47;;;;;;;12.63;2.70;;;;;;;11.57;74.51;100021.25;5522895;25;20001;-44
2024/04/16 05:31:13;;;;;;;12.35;2.70;;;;;;;11.60;73.66;100022.94;5521285;25;20412;-41
2024/04/16 05:33:38;;;;;;;19.73;2.70;;;;;;;11.63;73.53;100038.63;5522567;25;20005;-42
2024/04/16 05:36:04;;;;;;;9.77;2.13;;;;;;;11.63;72.92;100030.78;5522671;25;20009;-43
2024/04/16 05:38:29;;;;;;;18.45;2.58;;;;;;;11.94;72.15;100041.97;5522367;25;20005;-46
2024/04/16 05:40:54;;;;;;;12.32;2.65;;;;;;;11.68;72.02;100042.94;5523300;25;20066;-43
2024/04/16 05:43:20;;;;;;;14.32;2.33;;;;;;;11.59;71.97;100039.47;5522459;25;20008;-40
2024/04/16 05:45:45;;;;;;;12.20;2.25;;;;;;;11.59;71.91;100044.69;5522298;25;20651;-42
2024/04/16 05:48:10;;;;;;;21.02;2.63;;;;;;;12.04;70.35;100047.13;5519925;26;20009;-41
2024/04/16 05:50:36;;;;;;;11.80;2.20;;;;;;;11.52;73.04;100071.72;5522399;25;22841;-46
2024/04/16 05:53:01;;;;;;;12.93;2.78;;;;;;;11.99;73.97;100066.31;5523121;25;20463;-41
2024/04/16 05:55:28;;;;;;;17.02;2.25;;;;;;;11.92;75.88;100065.50;5521554;25;19994;-42
2024/04/16 05:57:53;;;;;;;14.70;2.67;;;;;;;11.91;77.55;100075.94;5522701;25;20049;-42
2024/04/16 06:00:18;;;;;;;12.23;2.47;;;;;;;11.70;78.00;100075.16;5522500;25;20400;-42
2024/04/16 06:02:44;;;;;;;12.18;2.75;;;;;;;11.54;76.81;100076.06;5522866;25;20407;-43
2024/04/16 06:05:09;;;;;;;17.10;2.65;;;;;;;11.78;76.25;100068.16;5523432;25;20081;-41
2024/04/16 06:07:34;;;;;;;15.07;2.58;;;;;;;11.68;76.32;100079.50;5522706;25;20084;-44
2024/04/16 06:09:59;;;;;;;15.50;2.58;;;;;;;12.09;75.24;100089.78;5523566;25;20777;-41
2024/04/16 06:12:25;;;;;;;14.52;2.80;;;;;;;11.93;75.17;100085.50;5523020;25;20001;-43
2024/04/16 06:14:50;;;;;;;23.50;3.28;;;;;;;12.16;73.59;100096.72;5523049;25;19997;-42
2024/04/16 06:17:15;;;;;;;19.20;2.58;;;;;;;12.03;73.84;100102.88;5521928;25;20477;-43
2024/04/16 06:19:43;;;;;;;11.70;2.28;;;;;;;11.86;74.91;100116.88;5521827;25;20001;-42
2024/04/16 06:22:09;;;;;;;11.95;2.92;;;;;;;10.84;81.44;100128.34;5522532;25;20008;-43
2024/04/16 06:24:35;;;;;;;12.57;2.42;;;;;;;11.03;80.63;100144.00;5521674;25;20001;-42
2024/04/16 06:27:00;;;;;;;16.25;2.97;;;;;;;11.16;81.03;100119.66;5521635;25;20475;-39
2024/04/16 06:29:26;;;;;;;15.90;2.83;;;;;;;10.96;82.74;100125.75;5520520;25;19997;-41
2024/04/16 06:31:51;;;;;;;17.73;2.40;;;;;;;11.53;82.36;100117.81;5522217;25;20065;-42
2024/04/16 06:34:17;;;;;;;18.55;2.80;;;;;;;12.08;78.80;100121.13;5521492;25;20001;-43
2024/04/16 06:36:42;;;;;;;25.73;2.83;;;;;;;12.65;75.05;100121.66;5521789;25;20009;-41
2024/04/16 06:39:07;;;;;;;14.90;2.75;;;;;;;12.63;75.19;100116.44;5520155;25;20423;-40
2024/04/16 06:41:33;;;;;;;17.42;2.50;;;;;;;13.09;73.50;100131.78;5521775;25;20002;-42
2024/04/16 06:43:58;;;;;;;12.35;2.70;;;;;;;13.22;73.55;100130.84;5521878;25;20046;-45
2024/04/16 06:46:23;;;;;;;20.02;3.13;;;;;;;13.15;71.79;100118.69;5521245;25;20017;-41
2024/04/16 06:48:50;;;;;;;20.88;3.00;;;;;;;13.64;71.88;100137.41;5521164;25;20076;-40
2024/04/16 06:51:15;;;;;;;17.10;2.50;;;;;;;14.23;69.60;100140.16;5521161;25;20321;-41
2024/04/16 06:53:40;;;;;;;18.10;2.90;;;;;;;14.37;69.29;100133.88;5521615;25;20020;-44
2024/04/16 06:56:06;;;;;;;18.23;2.60;;;;;;;13.79;69.87;100151.19;5522477;25;20016;-41
2024/04/16 06:58:32;;;;;;;19.52;2.95;;;;;;;14.00;68.88;100151.84;5521722;25;20010;-42
2024/04/16 07:00:58;;;;;;;16.08;2.72;;;;;;;13.09;70.45;100164.06;5522175;25;20096;-40
2024/04/16 07:03:23;;;;;;;13.02;2.53;;;;;;;13.55;69.70;100167.16;5520859;25;20001;-45
2024/04/16 07:05:49;;;;;;;11.05;2.28;;;;;;;14.10;67.22;100170.03;5521267;25;20065;-47
2024/04/16 07:08:15;;;;;;;11.68;2.10;;;;;;;14.54;65.92;100182.63;5521524;25;20011;-41
2024/04/16 07:10:40;;;;;;;14.63;2.38;;;;;;;14.24;66.88;100185.59;5524128;25;20066;-44
2024/04/16 07:13:05;;;;;;;10.90;2.00;;;;;;;13.79;66.06;100185.25;5523938;25;20014;-43
2024/04/16 07:15:33;;;;;;;10.52;1.80;;;;;;;14.20;64.94;100194.41;5521744;25;20051;-41
2024/04/16 07:17:58;;;;;;;11.30;1.80;;;;;;;13.06;67.75;100194.59;5521897;25;19998;-41
2024/04/16 07:20:23;;;;;;;15.18;2.53;;;;;;;13.86;65.70;100200.91;5520561;25;20061;-45
2024/04/16 07:22:49;;;;;;;14.32;2.40;;;;;;;13.99;66.13;100202.50;5521210;25;20001;-42
2024/04/16 07:25:14;;;;;;;15.00;2.50;;;;;;;13.65;67.65;100212.47;5520944;25;20051;-42
2024/04/16 07:27:40;;;;;;;15.02;2.60;;;;;;;12.74;72.15;100207.94;5522324;25;20045;-49
2024/04/16 07:30:06;;;;;;;15.77;2.50;;;;;;;12.31;73.22;100213.38;5523453;25;19997;-43
2024/04/16 07:32:31;;;;;;;17.52;2.70;;;;;;;12.71;72.12;100205.31;5523416;25;19998;-41
2024/04/16 07:34:56;;;;;;;18.30;2.65;;;;;;;12.54;73.26;100203.69;5520588;25;20472;-42
2024/04/16 07:37:22;;;;;;;16.60;2.22;;;;;;;12.99;72.25;100207.75;5519780;25;20013;-43
2024/04/16 07:39:47;;;;;;;15.75;2.90;;;;;;;12.78;73.03;100214.88;5520518;25;20017;-42
2024/04/16 07:42:13;;;;;;;10.68;2.03;;;;;;;12.48;71.88;100219.41;5524609;25;19993;-42
2024/04/16 07:44:41;;;;;;;13.43;2.55;;;;;;;12.75;70.56;100228.81;5524602;25;20782;-44
2024/04/16 07:47:06;;;;;;;14.57;2.55;;;;;;;12.98;70.15;100241.78;5527612;25;20002;-46
2024/04/16 07:49:32;;;;;;;10.77;2.35;;;;;;;13.07;69.54;100233.84;5527963;25;19993;-42
2024/04/16 07:51:57;;;;;;;14.98;2.50;;;;;;;13.76;68.18;100240.31;5528916;25;19997;-49
2024/04/16 07:54:22;;;;;;;15.55;2.53;;;;;;;13.03;69.27;100247.84;5525977;25;20444;-45
2024/04/16 07:56:50;;;;;;;10.82;2.42;;;;;;;13.33;70.14;100254.66;5525463;25;20001;-41
2024/04/16 07:59:15;;;;;;;15.68;3.00;;;;;;;12.70;74.00;100242.81;5524526;25;20044;-45
2024/04/16 08:01:40;;;;;;;11.75;2.40;;;;;;;11.92;76.58;100247.47;5526707;25;20002;-43
2024/04/16 08:04:05;;;;;;;16.42;2.88;;;;;;;12.46;74.85;100251.63;5528550;25;19998;-41
2024/04/16 08:06:31;;;;;;;17.25;2.50;;;;;;;12.62;74.08;100227.19;5527393;25;20006;-42
2024/04/16 08:08:56;;;;;;;15.18;3.10;;;;;;;12.73;73.37;100256.75;5523705;25;20001;-42
2024/04/16 08:11:22;;;;;;;11.73;2.33;;;;;;;13.64;71.76;100268.38;5523617;25;19998;-46
2024/04/16 08:13:48;;;;;;;13.02;2.50;;;;;;;13.54;70.35;100275.41;5523787;25;19997;-41
2024/04/16 08:16:14;;;;;;;11.85;2.05;;;;;;;13.52;70.53;100258.00;5523819;25;20073;-45
2024/04/16 08:18:39;;;;;;;13.15;2.13;;;;;;;13.89;69.30;100282.97;5523310;25;20009;-43
2024/04/16 08:21:05;;;;;;;14.55;2.25;;;;;;;13.92;69.96;100280.31;5523598;25;20013;-41
2024/04/16 08:23:30;;;;;;;13.90;2.42;;;;;;;13.61;69.41;100295.44;5523189;25;20005;-45
2024/04/16 08:25:59;;;;;;;12.10;2.55;;;;;;;13.10;69.51;100294.03;5523484;25;20008;-41
2024/04/16 08:28:25;;;;;;;12.02;2.10;;;;;;;12.80;69.35;100308.16;5523110;25;20008;-40
2024/04/16 08:30:53;;;;;;;13.65;2.67;;;;;;;13.12;70.18;100312.34;5523937;25;20004;-42
2024/04/16 08:33:20;;;;;;;15.60;2.97;;;;;;;13.28;70.95;100298.31;5521531;25;20564;-46
2024/04/16 08:35:46;;;;;;;18.10;2.60;;;;;;;12.91;72.05;100311.59;5523655;25;20008;-41
2024/04/16 08:38:11;;;;;;;17.73;2.65;;;;;;;13.00;71.51;100316.75;5523551;25;20001;-43
2024/04/16 08:40:38;;;;;;;14.90;2.60;;;;;;;12.69;71.58;100315.16;5522861;25;20069;-45
2024/04/16 08:43:03;;;;;;;13.25;2.70;;;;;;;13.07;71.30;100327.19;5523782;25;20005;-45
2024/04/16 08:45:29;;;;;;;13.98;2.70;;;;;;;12.81;74.13;100332.56;5522972;25;20073;-43
2024/04/16 08:47:57;;;;;;;12.38;2.72;;;;;;;13.23;73.96;100332.38;5523830;25;20011;-43
2024/04/16 08:50:23;;;;;;;17.05;2.60;;;;;;;13.08;73.68;100342.91;5522924;25;19994;-42
2024/04/16 08:52:50;;;;;;;15.15;3.15;;;;;;;13.06;73.48;100352.50;5522628;25;20009;-42
2024/04/16 08:55:18;;;;;;;22.25;3.15;;;;;;;13.09;74.00;100357.72;5522972;25;20009;-45
2024/04/16 08:57:44;;;;;;;14.57;2.78;;;;;;;13.04;73.63;100345.53;5522810;25;20029;-43
2024/04/16 09:00:10;;;;;;;16.75;2.80;;;;;;;13.46;72.42;100366.28;5523712;25;20471;-44
2024/04/16 09:02:37;;;;;;;18.73;3.13;;;;;;;13.05;74.01;100370.84;5523314;25;20368;-41
2024/04/16 09:05:03;;;;;;;12.75;2.90;;;;;;;12.87;73.32;100359.56;5524855;25;20377;-44
2024/04/16 09:07:30;;;;;;;17.90;2.97;;;;;;;12.75;75.85;100369.19;5525987;25;20069;-43
2024/04/16 09:09:55;;;;;;;17.88;3.10;;;;;;;12.61;76.71;100408.50;5526345;25;20001;-41
2024/04/16 09:12:21;;;;;;;13.98;3.00;;;;;;;13.02;77.17;100405.72;5523849;25;19998;-43
2024/04/16 09:14:47;;;;;;;17.05;3.25;;;;;;;12.56;77.99;100413.69;5527811;25;20078;-44
2024/04/16 09:17:13;;;;;;;18.85;3.30;;;;;;;12.65;77.71;100423.28;5530811;25;20010;-48
2024/04/16 09:19:41;;;;;;;15.43;2.97;;;;;;;12.79;75.52;100416.28;5530353;25;20009;-44
2024/04/16 09:22:06;;;;;;;14.85;3.83;;;;;;;13.09;76.62;100411.81;5525125;25;20016;-41
2024/04/16 09:24:31;;;;;;;15.80;3.13;;;;;;;13.20;75.15;100413.53;5523378;25;20005;-42
2024/04/16 09:26:59;;;;;;;19.00;3.25;;;;;;;13.70;73.91;100433.34;5531740;25;20073;-45
2024/04/16 09:29:25;;;;;;;16.50;2.97;;;;;;;13.66;73.35;100429.84;5534296;25;20005;-41
2024/04/16 09:32:00;;;;;;;18.58;3.47;;;;;;;13.50;74.83;100438.69;5531730;25;20073;-41
2024/04/16 09:34:25;;;;;;;20.35;3.60;;;;;;;13.36;74.83;100437.88;5526153;25;20343;-41
2024/04/16 09:36:51;;;;;;;15.35;2.88;;;;;;;12.85;75.08;100446.78;5523244;25;19994;-41
2024/04/16 09:39:21;;;;;;;19.73;3.17;;;;;;;13.38;73.26;100444.00;5522860;25;19993;-43
2024/04/16 09:41:48;;;;;;;19.25;3.35;;;;;;;13.67;73.10;100447.31;5522838;25;20459;-42
2024/04/16 09:44:15;;;;;;;11.65;3.00;;;;;;;13.14;73.55;100450.22;5523056;25;19994;-40
2024/04/16 09:46:41;;;;;;;20.02;3.53;;;;;;;13.26;73.49;100449.28;5523634;25;19994;-44
2024/04/16 09:49:08;;;;;;;22.90;3.53;;;;;;;12.96;75.05;100458.97;5522887;25;20024;-43
2024/04/16 09:51:35;;;;;;;15.57;3.40;;;;;;;12.83;76.56;100459.88;5523452;25;19997;-46
2024/04/16 09:54:03;;;;;;;23.10;3.92;;;;;;;12.80;76.47;100464.25;5523765;25;20083;-43
2024/04/16 09:56:33;;;;;;;19.20;3.38;;;;;;;12.65;77.33;100475.59;5523649;25;20010;-43
2024/04/16 09:58:59;;;;;;;21.42;3.33;;;;;;;12.67;77.49;100468.63;5523480;25;20002;-44
2024/04/16 10:01:27;;;;;;;20.55;4.13;;;;;;;12.42;78.52;100496.53;5523127;25;20331;-43
2024/04/16 10:03:54;;;;;;;19.35;3.88;;;;;;;11.84;81.65;100508.66;5552357;25;20002;-44
2024/04/16 10:06:19;;;;;;;9.68;2.38;;;;;;;11.88;80.39;100517.38;5522357;25;19997;-42
2024/04/16 10:08:44;;;;;;;13.18;2.60;;;;;;;11.70;82.52;100520.78;5521179;25;20445;-46
2024/04/16 10:11:10;;;;;;;13.60;1.90;;;;;;;11.51;81.29;100527.69;5523574;25;20006;-41
2024/04/16 10:13:38;;;;;;;7.60;1.38;;;;;;;11.38;81.28;100518.03;5523223;25;19998;-41
2024/04/16 10:16:14;;;;;;;10.80;1.80;;;;;;;11.56;80.08;100512.91;5523391;25;19997;-44
2024/04/16 10:18:39;;;;;;;6.85;1.42;;;;;;;11.28;81.95;100518.88;5524711;25;20008;-42
2024/04/16 10:21:05;;;;;;;13.32;1.63;;;;;;;11.58;80.89;100532.06;5523050;25;20324;-46
2024/04/16 10:23:31;;;;;;;9.93;1.80;;;;;;;11.30;82.81;100523.22;5521725;25;20355;-41
2024/04/16 10:25:57;;;;;;;8.13;1.75;;;;;;;11.70;81.46;100528.63;5521761;25;20041;-42
2024/04/16 10:28:27;;;;;;;7.70;1.80;;;;;;;11.86;81.14;100540.00;5521019;25;20008;-44
2024/04/16 10:31:08;;;;;;;13.65;2.22;;;;;;;11.70;83.01;100539.94;5522141;25;19998;-41
2024/04/16 10:33:40;;;;;;;11.82;2.63;;;;;;;11.92;83.08;100545.25;5521857;25;20008;-42
2024/04/16 10:36:07;;;;;;;14.73;3.13;;;;;;;11.26;85.98;100550.19;5522198;25;20197;-40
2024/04/16 10:38:36;;;;;;;14.57;2.78;;;;;;;11.86;83.85;100540.00;5521689;25;20002;-41
2024/04/16 10:41:01;;;;;;;11.23;2.95;;;;;;;11.54;83.36;100555.53;5551566;25;20008;-41
2024/04/16 10:43:27;;;;;;;8.70;2.92;;;;;;;11.57;83.52;100559.03;5550645;25;19998;-41
2024/04/16 10:45:54;;;;;;;11.70;2.90;;;;;;;11.88;82.06;100557.44;5521872;25;20397;-42
2024/04/16 10:48:20;;;;;;;11.63;3.30;;;;;;;11.97;82.57;100560.06;5520514;25;20005;-42
2024/04/16 10:50:46;;;;;;;9.38;3.13;;;;;;;11.61;83.41;100558.16;5522473;25;20002;-42
2024/04/16 10:53:18;;;;;;;15.48;3.55;;;;;;;11.47;84.95;100569.41;5523799;25;20013;-42
2024/04/16 10:55:44;;;;;;;11.23;3.83;;;;;;;11.63;85.02;100571.25;5522796;25;19994;-42
2024/04/16 10:58:20;;;;;;;15.32;3.70;;;;;;;12.06;83.45;100564.44;5522512;25;20037;-43
2024/04/16 11:00:46;;;;;;;14.25;3.22;;;;;;;11.72;84.16;100569.53;5522050;25;20001;-41
2024/04/16 11:03:12;;;;;;;8.52;2.80;;;;;;;11.79;83.69;100570.44;5522989;25;20075;-43
2024/04/16 11:05:39;;;;;;;14.70;3.50;;;;;;;11.76;84.06;100573.06;5521875;25;20025;-44
2024/04/16 11:08:07;;;;;;;12.02;3.40;;;;;;;12.08;83.34;100578.38;5521918;25;20510;-41
2024/04/16 11:10:33;;;;;;;19.23;4.00;;;;;;;12.32;82.78;100581.03;5521297;25;20374;-41
2024/04/16 11:12:58;;;;;;;22.27;4.38;;;;;;;12.07;83.73;100579.28;5521787;25;20004;-44
2024/04/16 11:15:24;;;;;;;19.92;4.50;;;;;;;12.41;83.05;100585.41;5521383;25;20029;-41